createdAt,value
2023-02-19T00:03:48.108Z,8.69
2023-02-19T00:08:44.820Z,8.7
2023-02-19T00:13:48.163Z,8.7
2023-02-19T00:18:46.865Z,8.68
2023-02-19T00:23:45.062Z,8.69
2023-02-19T00:28:44.954Z,8.69
2023-02-19T00:33:44.842Z,8.68
2023-02-19T00:38:45.875Z,8.67
2023-02-19T00:43:44.780Z,8.67
2023-02-19T00:48:44.670Z,8.65
2023-02-19T00:53:44.958Z,8.64
2023-02-19T00:58:44.724Z,8.63
2023-02-19T01:03:45.015Z,8.63
2023-02-19T01:08:44.954Z,8.61
2023-02-19T01:13:45.986Z,8.61
2023-02-19T01:18:49.512Z,8.61
2023-02-19T01:23:46.618Z,8.61
2023-02-19T01:28:46.680Z,8.61
2023-02-19T01:33:49.044Z,8.6
2023-02-19T01:38:47.316Z,8.61
2023-02-19T01:43:57.330Z,8.58
2023-02-19T01:48:47.535Z,8.56
2023-02-19T01:53:48.873Z,8.53
2023-02-19T01:58:50.587Z,8.52
2023-02-19T02:03:49.819Z,8.51
2023-02-19T02:08:58.657Z,8.51
2023-02-19T02:13:46.136Z,8.49
2023-02-19T02:18:53.494Z,8.5
2023-02-19T02:23:55.847Z,8.47
2023-02-19T02:29:02.059Z,8.47
2023-02-19T02:33:50.572Z,8.46
2023-02-19T02:38:49.334Z,8.45
2023-02-19T02:43:46.300Z,8.45
2023-02-19T02:48:53.574Z,8.42
2023-02-19T02:53:59.496Z,8.42
2023-02-19T02:58:45.533Z,8.41
2023-02-19T03:03:53.258Z,8.4
2023-02-19T03:08:47.083Z,8.4
2023-02-19T03:13:55.978Z,8.38
2023-02-19T03:19:03.879Z,8.39
2023-02-19T03:23:56.678Z,8.36
2023-02-19T03:29:06.273Z,8.36
2023-02-19T03:33:46.358Z,8.35
2023-02-19T03:38:51.421Z,8.36
2023-02-19T03:43:47.750Z,8.35
2023-02-19T03:48:50.070Z,8.34
2023-02-19T03:53:53.915Z,8.33
2023-02-19T03:58:52.350Z,8.32
2023-02-19T04:03:47.767Z,8.3
2023-02-19T04:08:46.947Z,8.31
2023-02-19T04:13:49.777Z,8.29
2023-02-19T04:18:47.657Z,8.3
2023-02-19T04:23:48.650Z,8.29
2023-02-19T04:28:46.399Z,8.29
2023-02-19T04:33:44.800Z,8.26
2023-02-19T04:38:44.535Z,8.26
2023-02-19T04:43:44.716Z,8.23
2023-02-19T04:48:44.577Z,8.25
2023-02-19T04:53:44.768Z,8.25
2023-02-19T04:58:57.945Z,8.22
2023-02-19T05:03:46.525Z,8.22
2023-02-19T05:08:45.068Z,8.21
2023-02-19T05:13:46.934Z,8.19
2023-02-19T05:18:45.121Z,8.17
2023-02-19T05:23:45.153Z,8.16
2023-02-19T05:28:44.552Z,8.13
2023-02-19T05:33:48.071Z,8.12
2023-02-19T05:38:45.259Z,8.12
2023-02-19T05:43:45.517Z,8.09
2023-02-19T05:48:44.596Z,8.1
2023-02-19T05:53:45.374Z,8.07
2023-02-19T05:58:44.556Z,8.07
2023-02-19T06:03:44.704Z,8.06
2023-02-19T06:08:44.984Z,8.04
2023-02-19T06:13:44.555Z,8.03
2023-02-19T06:18:44.555Z,8.02
2023-02-19T06:23:46.123Z,8.02
2023-02-19T06:28:45.141Z,8
2023-02-19T06:33:44.914Z,8
2023-02-19T06:38:44.605Z,7.98
2023-02-19T06:43:44.672Z,7.97
2023-02-19T06:48:46.148Z,7.96
2023-02-19T06:53:44.698Z,7.95
2023-02-19T06:58:44.647Z,7.95
2023-02-19T07:03:44.740Z,7.94
2023-02-19T07:08:44.507Z,7.94
2023-02-19T07:13:44.510Z,7.93
2023-02-19T07:18:45.249Z,7.94
2023-02-19T07:23:44.864Z,7.92
2023-02-19T07:28:44.924Z,7.92
2023-02-19T07:33:46.271Z,7.92
2023-02-19T07:38:44.605Z,7.92
2023-02-19T07:43:44.610Z,7.92
2023-02-19T07:48:45.170Z,7.92
2023-02-19T07:53:44.495Z,7.92
2023-02-19T07:58:46.048Z,7.92
2023-02-19T08:03:44.637Z,7.93
2023-02-19T08:08:44.677Z,7.93
2023-02-19T08:13:47.702Z,7.94
2023-02-19T08:18:48.527Z,7.95
2023-02-19T08:23:46.154Z,7.95
2023-02-19T08:28:44.747Z,7.96
2023-02-19T08:33:47.889Z,7.97
2023-02-19T08:38:44.428Z,7.97
2023-02-19T08:43:44.822Z,7.96
2023-02-19T08:48:44.751Z,7.97
2023-02-19T08:53:48.180Z,7.98
2023-02-19T08:58:44.476Z,7.99
2023-02-19T09:03:44.777Z,7.99
2023-02-19T09:08:44.757Z,8
2023-02-19T09:13:47.866Z,8.01
2023-02-19T09:18:45.589Z,8.02
2023-02-19T09:23:44.562Z,8.05
2023-02-19T09:28:45.705Z,8.13
2023-02-19T09:33:45.678Z,8.23
2023-02-19T09:38:45.419Z,8.32
2023-02-19T09:43:44.782Z,8.43
2023-02-19T09:48:44.562Z,8.5
2023-02-19T09:53:45.611Z,8.51
2023-02-19T09:58:52.226Z,8.51
2023-02-19T10:03:47.463Z,8.5
2023-02-19T10:08:45.725Z,8.47
2023-02-19T10:13:49.455Z,8.44
2023-02-19T10:18:45.534Z,8.4
2023-02-19T10:23:46.471Z,8.4
2023-02-19T10:28:47.716Z,8.41
2023-02-19T10:33:54.931Z,8.4
2023-02-19T10:38:49.340Z,8.4
2023-02-19T10:43:49.984Z,8.36
2023-02-19T10:48:50.687Z,8.32
2023-02-19T10:53:53.887Z,8.31
2023-02-19T10:58:52.293Z,8.28
2023-02-19T11:03:45.323Z,8.28
2023-02-19T11:08:49.884Z,8.26
2023-02-19T11:13:46.034Z,8.28
2023-02-19T11:18:44.876Z,8.29
2023-02-19T11:23:51.493Z,8.34
2023-02-19T11:28:45.708Z,8.37
2023-02-19T11:33:47.474Z,8.42
2023-02-19T11:38:44.495Z,8.46
2023-02-19T11:44:00.875Z,8.48
2023-02-19T11:48:49.445Z,8.5
2023-02-19T11:53:50.800Z,8.52
2023-02-19T11:58:53.772Z,8.53
2023-02-19T12:03:59.713Z,8.54
2023-02-19T12:08:56.019Z,8.51
2023-02-19T12:13:54.723Z,8.5
2023-02-19T12:19:12.738Z,8.51
2023-02-19T12:24:02.856Z,8.5
2023-02-19T12:28:53.973Z,8.51
2023-02-19T12:33:56.603Z,8.53
2023-02-19T12:38:47.448Z,8.56
2023-02-19T12:43:55.856Z,8.6
2023-02-19T12:48:53.357Z,8.68
2023-02-19T12:53:50.344Z,8.76
2023-02-19T12:58:48.066Z,8.88
2023-02-19T13:03:52.546Z,8.99
2023-02-19T13:09:03.431Z,9.03
2023-02-19T13:13:46.504Z,9.04
2023-02-19T13:18:46.245Z,9.01
2023-02-19T13:23:57.189Z,8.98
2023-02-19T13:28:56.229Z,8.96
2023-02-19T13:33:51.121Z,8.96
2023-02-19T13:38:49.856Z,8.94
2023-02-19T13:43:46.721Z,8.9
2023-02-19T13:48:45.115Z,8.84
2023-02-19T13:54:01.019Z,8.77
2023-02-19T13:58:57.532Z,8.72
2023-02-19T14:03:50.624Z,8.67
2023-02-19T14:08:55.813Z,8.64
2023-02-19T14:13:55.916Z,8.64
2023-02-19T14:18:52.570Z,8.64
2023-02-19T14:23:53.242Z,8.65
2023-02-19T14:28:47.792Z,8.67
2023-02-19T14:33:48.845Z,8.69
2023-02-19T14:38:51.567Z,8.7
2023-02-19T14:43:45.393Z,8.7
2023-02-19T14:48:48.612Z,8.68
2023-02-19T14:53:46.607Z,8.66
2023-02-19T14:58:44.428Z,8.65
2023-02-19T15:03:45.675Z,8.63
2023-02-19T15:08:47.456Z,8.6
2023-02-19T15:13:46.504Z,8.54
2023-02-19T15:18:48.712Z,8.42
2023-02-19T15:23:44.685Z,8.37
2023-02-19T15:31:54.003Z,8.25
2023-02-19T15:36:47.316Z,8.16
2023-02-19T15:41:47.780Z,8.13
2023-02-19T15:46:48.295Z,8.08
2023-02-19T15:51:51.348Z,8.06
2023-02-19T15:56:50.977Z,8.01
2023-02-19T16:01:47.361Z,7.98
2023-02-19T16:06:58.793Z,7.94
2023-02-19T16:11:51.854Z,7.9
2023-02-19T16:16:48.077Z,7.85
2023-02-19T16:21:47.209Z,7.81
2023-02-19T16:26:53.668Z,7.74
2023-02-19T16:31:51.578Z,7.69
2023-02-19T16:36:49.854Z,7.67
2023-02-19T16:41:58.361Z,7.57
2023-02-19T16:46:47.128Z,7.55
2023-02-19T16:51:47.880Z,7.48
2023-02-19T16:56:47.160Z,7.45
2023-02-19T17:01:47.478Z,7.4
2023-02-19T17:06:49.360Z,7.35
2023-02-19T17:11:47.414Z,7.3
2023-02-19T17:16:48.283Z,7.25
2023-02-19T17:21:50.044Z,7.23
2023-02-19T17:26:47.241Z,7.16
2023-02-19T17:31:49.127Z,7.14
2023-02-19T17:36:54.627Z,7.08
2023-02-19T17:41:49.564Z,7.06
2023-02-19T17:46:51.583Z,6.99
2023-02-19T17:51:47.019Z,6.94
2023-02-19T17:56:47.576Z,6.86
2023-02-19T18:01:47.061Z,6.81
2023-02-19T18:06:50.722Z,6.74
2023-02-19T18:12:02.092Z,6.67
2023-02-19T18:16:52.630Z,6.62
2023-02-19T18:21:47.168Z,6.54
2023-02-19T18:26:48.139Z,6.47
2023-02-19T18:31:51.997Z,6.41
2023-02-19T18:36:47.848Z,6.33
2023-02-19T18:41:52.058Z,6.23
2023-02-19T18:46:47.487Z,6.13
2023-02-19T18:51:48.418Z,6.04
2023-02-19T18:56:51.015Z,5.98
2023-02-19T19:01:47.806Z,5.91
2023-02-19T19:06:48.512Z,5.83
2023-02-19T19:11:51.214Z,5.73
2023-02-19T19:16:50.717Z,5.65
2023-02-19T19:21:53.042Z,5.58
2023-02-19T19:27:01.980Z,5.52
2023-02-19T19:32:08.393Z,5.45
2023-02-19T19:36:47.537Z,5.38
2023-02-19T19:41:49.029Z,5.29
2023-02-19T19:46:56.450Z,5.25
2023-02-19T19:51:47.634Z,5.22
2023-02-19T19:56:50.723Z,5.17
2023-02-19T20:01:55.165Z,5.11
2023-02-19T20:06:51.338Z,5.07
2023-02-19T20:11:54.491Z,5.05
2023-02-19T20:16:47.207Z,5.02
2023-02-19T20:21:47.798Z,5
2023-02-19T20:26:47.369Z,4.98
2023-02-19T20:31:51.525Z,4.95
2023-02-19T20:36:53.741Z,4.9
2023-02-19T20:41:51.351Z,4.87
2023-02-19T20:46:49.662Z,4.87
2023-02-19T20:51:54.606Z,4.85
2023-02-19T20:56:55.933Z,4.86
2023-02-19T21:01:47.645Z,4.84
2023-02-19T21:06:48.321Z,4.86
2023-02-19T21:11:49.284Z,4.87
2023-02-19T21:16:47.183Z,4.86
2023-02-19T21:21:48.636Z,4.86
2023-02-19T21:26:47.553Z,4.85
2023-02-19T21:31:48.058Z,4.83
2023-02-19T21:36:49.988Z,4.84
2023-02-19T21:41:47.205Z,4.79
2023-02-19T21:46:50.043Z,4.81
2023-02-19T21:51:49.224Z,4.84
2023-02-19T21:56:50.336Z,4.84
2023-02-19T22:01:47.136Z,4.83
2023-02-19T22:06:47.587Z,4.85
2023-02-19T22:11:47.137Z,4.84
2023-02-19T22:16:47.296Z,4.87
2023-02-19T22:21:48.906Z,4.87
2023-02-19T22:26:47.246Z,4.88
2023-02-19T22:31:47.816Z,4.91
2023-02-19T22:36:47.197Z,4.96
2023-02-19T22:41:51.538Z,4.97
2023-02-19T22:46:52.445Z,5.01
2023-02-19T22:51:59.346Z,5.07
2023-02-19T22:56:47.125Z,5.1
2023-02-19T23:01:47.014Z,5.14
2023-02-19T23:06:48.265Z,5.19
2023-02-19T23:11:47.363Z,5.21
2023-02-19T23:16:47.191Z,5.24
2023-02-19T23:21:48.108Z,5.27
2023-02-19T23:26:50.388Z,5.29
2023-02-19T23:31:47.648Z,5.32
2023-02-19T23:36:50.990Z,5.33
2023-02-19T23:41:52.474Z,5.38
2023-02-19T23:46:48.623Z,5.41
2023-02-19T23:51:50.048Z,5.45
2023-02-19T23:56:47.134Z,5.46
